Blue Star Naxos — SZUI — position and weather

sailwx.info

Track history (hours):
 
Tides and Currents Weather Stations Pressure Air Temp Water Temp Dewpoint Dewpoint Depression Visibility Wind Speed Wind Dir Waves Ship Positions

Blue Star Naxos

Last reported at 2017-Jan-17 16:33 UTC. Time now 2017-Jan-17 19:14 UTC.
Position N 37°39' E 023°46'.

Length 124 m; draft 5 m.

Type: Passenger vessel. MMSI: 239923000.

Date/timePositionNaut miles runAvg speedWind from/ knotsBaromVisibWave heightAir tempDewpointWater temp
2017-Jan-17 16:33N 37°39' E 023°46'1919.0
2017-Jan-17 15:33N 37°56' E 023°38'1 0.5
2017-Jan-17 14:33N 37°57' E 023°38'0 0.0
2017-Jan-17 13:33N 37°57' E 023°38'9 9.0
2017-Jan-17 12:34N 37°48' E 023°41'2221.3
2017-Jan-17 11:31N 37°35' E 024°04'4521.8
2017-Jan-17 09:28N 37°14' E 024°53'2412.5
2017-Jan-17 07:33N 37°06' E 025°22'1511.2
2017-Jan-17 06:13N 37°10' E 025°40'2 0.3
2017-Jan-16 22:33N 37°08' E 025°42'1616.3
2017-Jan-16 21:34N 37°06' E 025°22'20 9.8
2017-Jan-16 19:33N 37°11' E 024°58'6721.2
2017-Jan-16 16:24N 37°40' E 023°42'8 2.1
2017-Jan-16 12:34N 37°48' E 023°41'6721.7
2017-Jan-16 09:28N 37°14' E 024°54'2312.2
2017-Jan-16 07:33N 37°07' E 025°22'6 6.1
2017-Jan-16 06:33N 37°01' E 025°19'5 0.7
2017-Jan-15 22:16N 37°06' E 025°20'5 7.8
2017-Jan-15 21:33N 37°10' E 025°16'7615.1
2017-Jan-15 16:33N 37°39' E 023°47'1919.5
2017-Jan-15 15:33N 37°56' E 023°38'1 0.6
2017-Jan-15 14:33N 37°57' E 023°38'0 0.0
2017-Jan-15 13:33N 37°57' E 023°38'8 8.2
2017-Jan-15 12:34N 37°49' E 023°41'7121.7
2017-Jan-15 09:18N 37°12' E 024°57'2112.0
2017-Jan-15 07:34N 37°06' E 025°22'5 4.6
2017-Jan-15 06:34N 37°03' E 025°18'4 0.1
2017-Jan-13 22:16N 36°59' E 025°20'710.2
2017-Jan-13 21:33N 37°06' E 025°22'19 9.7
2017-Jan-13 19:34N 37°11' E 024°59'6421.4
2017-Jan-13 16:33N 37°39' E 023°46'1918.8
2017-Jan-13 15:33N 37°57' E 023°38'0 0.2
2017-Jan-13 14:33N 37°57' E 023°38'0 0.0
2017-Jan-13 13:33N 37°57' E 023°38'8 8.2
2017-Jan-13 12:34N 37°49' E 023°41'6921.7
2017-Jan-13 09:24N 37°13' E 024°54'2312.6
2017-Jan-13 07:34N 37°06' E 025°22'1510.2
2017-Jan-13 06:07N 37°09' E 025°40'4 0.6
2017-Jan-12 23:27N 37°07' E 025°44'1618.3
2017-Jan-12 22:33N 37°09' E 025°24'7 7.4
2017-Jan-12 21:34N 37°10' E 025°15'7615.1
2017-Jan-12 16:33N 37°38' E 023°47'1919.6
2017-Jan-12 15:33N 37°56' E 023°38'1 0.6
2017-Jan-12 14:33N 37°57' E 023°38'0 0.0
2017-Jan-12 13:33N 37°57' E 023°38'1010.1
2017-Jan-12 12:34N 37°47' E 023°42'6921.4
2017-Jan-12 09:20N 37°12' E 024°57'2111.7
2017-Jan-12 07:33N 37°07' E 025°22'1512.3
2017-Jan-12 06:21N 37°09' E 025°40'1 0.2
2017-Jan-11 22:33N 37°10' E 025°39'1413.8
2017-Jan-11 21:33N 37°06' E 025°22'2110.3
2017-Jan-11 19:34N 37°12' E 024°57'6421.0
2017-Jan-11 16:31N 37°39' E 023°45'1819.0
2017-Jan-11 15:33N 37°56' E 023°38'1 0.5
2017-Jan-11 14:33N 37°57' E 023°38'0 0.0
2017-Jan-11 13:34N 37°57' E 023°38'1110.6
2017-Jan-11 12:33N 37°47' E 023°42'6321.2
2017-Jan-11 09:34N 37°15' E 024°52'2612.9
2017-Jan-11 07:33N 37°06' E 025°22'5 4.6
2017-Jan-11 06:33N 37°03' E 025°18'4 0.6
2017-Jan-10 23:04N 36°59' E 025°20'714.3
2017-Jan-10 22:33N 37°06' E 025°22'8313.8
2017-Jan-10 16:33N 37°39' E 023°46'1919.2
2017-Jan-10 15:33N 37°56' E 023°38'1 0.5
2017-Jan-10 14:33N 37°57' E 023°38'0 0.0
2017-Jan-10 13:33N 37°57' E 023°38'1212.3
2017-Jan-10 12:33N 37°45' E 023°43'7121.4
2017-Jan-10 09:15N 37°10' E 025°00'1810.3
2017-Jan-10 07:33N 37°06' E 025°22'1610.9
2017-Jan-10 06:07N 37°09' E 025°41'3 0.5
2017-Jan-09 23:15N 37°07' E 025°45'1419.5
2017-Jan-09 22:33N 37°14' E 025°30'1010.1
2017-Jan-09 21:33N 37°06' E 025°22'2110.7
2017-Jan-09 19:33N 37°12' E 024°56'6120.5
2017-Jan-09 16:33N 37°39' E 023°46'1919.2
2017-Jan-09 15:34N 37°57' E 023°38'0 0.2
2017-Jan-09 13:33N 37°57' E 023°38'9 9.4
2017-Jan-09 12:33N 37°48' E 023°42'7021.4
2017-Jan-09 09:16N 37°11' E 024°57'2011.6
2017-Jan-09 07:33N 37°07' E 025°22'5 5.0
2017-Jan-09 06:33N 37°03' E 025°18'5 0.6
2017-Jan-08 22:34N 37°06' E 025°22'31 9.3
2017-Jan-08 19:10N 37°30' E 024°57'3521.8
2017-Jan-08 17:33N 37°31' E 024°12'2222.1
2017-Jan-08 16:33N 37°39' E 023°46'1919.1
2017-Jan-08 15:33N 37°57' E 023°38'0 0.1
2017-Jan-08 14:33N 37°57' E 023°38'0 0.0
2017-Jan-08 13:33N 37°57' E 023°38'1211.7
2017-Jan-08 12:33N 37°46' E 023°43'2621.4
2017-Jan-08 11:19N 37°32' E 024°12'3921.0
2017-Jan-08 09:27N 37°13' E 024°55'2311.9
2017-Jan-08 07:33N 37°06' E 025°22'6 6.0
2017-Jan-08 06:34N 37°01' E 025°19'  
Track history (hours):
 
Tides and Currents Weather Stations Pressure Air Temp Water Temp Dewpoint Dewpoint Depression Visibility Wind Speed Wind Dir Waves Ship Positions

Blue Star Naxos

Last reported at 2017-Jan-17 16:33 UTC. Time now 2017-Jan-17 19:14 UTC.
Position N 37°39' E 023°46'.

Length 124 m; draft 5 m.

Type: Passenger vessel. MMSI: 239923000.

Date/timePositionNaut miles runAvg speedWind from/ knotsBaromVisibWave heightAir tempDewpointWater temp
2017-Jan-17 16:33N 37°39' E 023°46'1919.0
2017-Jan-17 15:33N 37°56' E 023°38'1 0.5
2017-Jan-17 14:33N 37°57' E 023°38'0 0.0
2017-Jan-17 13:33N 37°57' E 023°38'9 9.0
2017-Jan-17 12:34N 37°48' E 023°41'2221.3
2017-Jan-17 11:31N 37°35' E 024°04'4521.8
2017-Jan-17 09:28N 37°14' E 024°53'2412.5
2017-Jan-17 07:33N 37°06' E 025°22'1511.2
2017-Jan-17 06:13N 37°10' E 025°40'2 0.3
2017-Jan-16 22:33N 37°08' E 025°42'1616.3
2017-Jan-16 21:34N 37°06' E 025°22'20 9.8
2017-Jan-16 19:33N 37°11' E 024°58'6721.2
2017-Jan-16 16:24N 37°40' E 023°42'8 2.1
2017-Jan-16 12:34N 37°48' E 023°41'6721.7
2017-Jan-16 09:28N 37°14' E 024°54'2312.2
2017-Jan-16 07:33N 37°07' E 025°22'6 6.1
2017-Jan-16 06:33N 37°01' E 025°19'5 0.7
2017-Jan-15 22:16N 37°06' E 025°20'5 7.8
2017-Jan-15 21:33N 37°10' E 025°16'7615.1
2017-Jan-15 16:33N 37°39' E 023°47'1919.5
2017-Jan-15 15:33N 37°56' E 023°38'1 0.6
2017-Jan-15 14:33N 37°57' E 023°38'0 0.0
2017-Jan-15 13:33N 37°57' E 023°38'8 8.2
2017-Jan-15 12:34N 37°49' E 023°41'7121.7
2017-Jan-15 09:18N 37°12' E 024°57'2112.0
2017-Jan-15 07:34N 37°06' E 025°22'5 4.6
2017-Jan-15 06:34N 37°03' E 025°18'4 0.1
2017-Jan-13 22:16N 36°59' E 025°20'710.2
2017-Jan-13 21:33N 37°06' E 025°22'19 9.7
2017-Jan-13 19:34N 37°11' E 024°59'6421.4
2017-Jan-13 16:33N 37°39' E 023°46'1918.8
2017-Jan-13 15:33N 37°57' E 023°38'0 0.2
2017-Jan-13 14:33N 37°57' E 023°38'0 0.0
2017-Jan-13 13:33N 37°57' E 023°38'8 8.2
2017-Jan-13 12:34N 37°49' E 023°41'6921.7
2017-Jan-13 09:24N 37°13' E 024°54'2312.6
2017-Jan-13 07:34N 37°06' E 025°22'1510.2
2017-Jan-13 06:07N 37°09' E 025°40'4 0.6
2017-Jan-12 23:27N 37°07' E 025°44'1618.3
2017-Jan-12 22:33N 37°09' E 025°24'7 7.4
2017-Jan-12 21:34N 37°10' E 025°15'7615.1
2017-Jan-12 16:33N 37°38' E 023°47'1919.6
2017-Jan-12 15:33N 37°56' E 023°38'1 0.6
2017-Jan-12 14:33N 37°57' E 023°38'0 0.0
2017-Jan-12 13:33N 37°57' E 023°38'1010.1
2017-Jan-12 12:34N 37°47' E 023°42'6921.4
2017-Jan-12 09:20N 37°12' E 024°57'2111.7
2017-Jan-12 07:33N 37°07' E 025°22'1512.3
2017-Jan-12 06:21N 37°09' E 025°40'1 0.2
2017-Jan-11 22:33N 37°10' E 025°39'1413.8
2017-Jan-11 21:33N 37°06' E 025°22'2110.3
2017-Jan-11 19:34N 37°12' E 024°57'6421.0
2017-Jan-11 16:31N 37°39' E 023°45'1819.0
2017-Jan-11 15:33N 37°56' E 023°38'1 0.5
2017-Jan-11 14:33N 37°57' E 023°38'0 0.0
2017-Jan-11 13:34N 37°57' E 023°38'1110.6
2017-Jan-11 12:33N 37°47' E 023°42'6321.2
2017-Jan-11 09:34N 37°15' E 024°52'2612.9
2017-Jan-11 07:33N 37°06' E 025°22'5 4.6
2017-Jan-11 06:33N 37°03' E 025°18'4 0.6
2017-Jan-10 23:04N 36°59' E 025°20'714.3
2017-Jan-10 22:33N 37°06' E 025°22'8313.8
2017-Jan-10 16:33N 37°39' E 023°46'1919.2
2017-Jan-10 15:33N 37°56' E 023°38'1 0.5
2017-Jan-10 14:33N 37°57' E 023°38'0 0.0
2017-Jan-10 13:33N 37°57' E 023°38'1212.3
2017-Jan-10 12:33N 37°45' E 023°43'7121.4
2017-Jan-10 09:15N 37°10' E 025°00'1810.3
2017-Jan-10 07:33N 37°06' E 025°22'1610.9
2017-Jan-10 06:07N 37°09' E 025°41'3 0.5
2017-Jan-09 23:15N 37°07' E 025°45'1419.5
2017-Jan-09 22:33N 37°14' E 025°30'1010.1
2017-Jan-09 21:33N 37°06' E 025°22'2110.7
2017-Jan-09 19:33N 37°12' E 024°56'6120.5
2017-Jan-09 16:33N 37°39' E 023°46'1919.2
2017-Jan-09 15:34N 37°57' E 023°38'0 0.2
2017-Jan-09 13:33N 37°57' E 023°38'9 9.4
2017-Jan-09 12:33N 37°48' E 023°42'7021.4
2017-Jan-09 09:16N 37°11' E 024°57'2011.6
2017-Jan-09 07:33N 37°07' E 025°22'5 5.0
2017-Jan-09 06:33N 37°03' E 025°18'5 0.6
2017-Jan-08 22:34N 37°06' E 025°22'31 9.3
2017-Jan-08 19:10N 37°30' E 024°57'3521.8
2017-Jan-08 17:33N 37°31' E 024°12'2222.1
2017-Jan-08 16:33N 37°39' E 023°46'1919.1
2017-Jan-08 15:33N 37°57' E 023°38'0 0.1
2017-Jan-08 14:33N 37°57' E 023°38'0 0.0
2017-Jan-08 13:33N 37°57' E 023°38'1211.7
2017-Jan-08 12:33N 37°46' E 023°43'2621.4
2017-Jan-08 11:19N 37°32' E 024°12'3921.0
2017-Jan-08 09:27N 37°13' E 024°55'2311.9
2017-Jan-08 07:33N 37°06' E 025°22'6 6.0
2017-Jan-08 06:34N 37°01' E 025°19'  

Dump ship's entire track history